sensor_id;sensor_type;location;lat;lon;timestamp;pressure;altitude;pressure_sealevel;temperature;humidity
33286;BME280;19656;50.096;20.014;2023-04-28T00:01:21;99533.04;;;6.78;59.49
33286;BME280;19656;50.096;20.014;2023-04-28T00:06:24;99533.36;;;6.83;58.78
33286;BME280;19656;50.096;20.014;2023-04-28T00:11:27;99526.98;;;6.94;58.10
33286;BME280;19656;50.096;20.014;2023-04-28T00:16:31;99530.86;;;7.02;58.74
33286;BME280;19656;50.096;20.014;2023-04-28T00:21:35;99526.66;;;7.06;58.25
33286;BME280;19656;50.096;20.014;2023-04-28T00:26:39;99523.33;;;7.10;58.68
33286;BME280;19656;50.096;20.014;2023-04-28T00:31:43;99518.65;;;7.12;59.15
33286;BME280;19656;50.096;20.014;2023-04-28T00:36:47;99512.47;;;7.12;58.94
33286;BME280;19656;50.096;20.014;2023-04-28T00:41:50;99511.27;;;7.11;59.06
33286;BME280;19656;50.096;20.014;2023-04-28T00:46:55;99507.91;;;7.07;59.21
33286;BME280;19656;50.096;20.014;2023-04-28T00:52:00;99500.73;;;7.05;59.34
33286;BME280;19656;50.096;20.014;2023-04-28T00:57:08;99499.41;;;7.03;59.49
33286;BME280;19656;50.096;20.014;2023-04-28T01:02:12;99504.66;;;7.00;59.05
33286;BME280;19656;50.096;20.014;2023-04-28T01:07:20;99505.71;;;7.00;59.62
33286;BME280;19656;50.096;20.014;2023-04-28T01:12:26;99512.55;;;7.01;59.77
33286;BME280;19656;50.096;20.014;2023-04-28T01:17:38;99507.56;;;7.02;59.40
33286;BME280;19656;50.096;20.014;2023-04-28T01:29:06;99513.30;;;7.09;59.08
33286;BME280;19656;50.096;20.014;2023-04-28T01:34:09;99519.14;;;7.13;59.68
33286;BME280;19656;50.096;20.014;2023-04-28T01:39:13;99523.19;;;7.09;59.60
33286;BME280;19656;50.096;20.014;2023-04-28T01:44:17;99520.96;;;7.12;58.87
33286;BME280;19656;50.096;20.014;2023-04-28T01:49:23;99522.42;;;7.15;58.41
33286;BME280;19656;50.096;20.014;2023-04-28T01:54:27;99514.85;;;7.18;58.57
33286;BME280;19656;50.096;20.014;2023-04-28T01:59:30;99514.45;;;7.20;58.13
33286;BME280;19656;50.096;20.014;2023-04-28T02:04:34;99513.50;;;7.25;57.94
33286;BME280;19656;50.096;20.014;2023-04-28T02:21:50;99517.54;;;7.44;58.27
33286;BME280;19656;50.096;20.014;2023-04-28T02:26:53;99514.79;;;7.46;57.79
33286;BME280;19656;50.096;20.014;2023-04-28T02:31:57;99509.25;;;7.48;58.15
33286;BME280;19656;50.096;20.014;2023-04-28T02:37:01;99512.99;;;7.47;57.54
33286;BME280;19656;50.096;20.014;2023-04-28T02:42:13;99512.51;;;7.54;57.49
33286;BME280;19656;50.096;20.014;2023-04-28T02:47:16;99515.67;;;7.63;57.56
33286;BME280;19656;50.096;20.014;2023-04-28T02:52:20;99515.16;;;7.58;57.75
33286;BME280;19656;50.096;20.014;2023-04-28T02:57:23;99511.73;;;7.64;58.24
33286;BME280;19656;50.096;20.014;2023-04-28T03:02:27;99509.59;;;7.61;58.41
33286;BME280;19656;50.096;20.014;2023-04-28T03:07:30;99515.08;;;7.55;57.79
33286;BME280;19656;50.096;20.014;2023-04-28T03:12:34;99509.92;;;7.52;57.22
33286;BME280;19656;50.096;20.014;2023-04-28T03:17:37;99510.50;;;7.51;58.25
33286;BME280;19656;50.096;20.014;2023-04-28T03:22:43;99514.25;;;7.59;57.72
33286;BME280;19656;50.096;20.014;2023-04-28T03:27:47;99513.32;;;7.55;57.93
33286;BME280;19656;50.096;20.014;2023-04-28T03:32:51;99519.80;;;7.49;58.23
33286;BME280;19656;50.096;20.014;2023-04-28T03:37:54;99518.93;;;7.44;58.67
33286;BME280;19656;50.096;20.014;2023-04-28T03:42:58;99518.05;;;7.40;59.17
33286;BME280;19656;50.096;20.014;2023-04-28T03:48:08;99521.50;;;7.37;59.35
33286;BME280;19656;50.096;20.014;2023-04-28T03:53:11;99523.99;;;7.32;59.86
33286;BME280;19656;50.096;20.014;2023-04-28T03:58:15;99524.02;;;7.36;60.13
33286;BME280;19656;50.096;20.014;2023-04-28T04:03:19;99525.59;;;7.28;60.35
33286;BME280;19656;50.096;20.014;2023-04-28T04:08:25;99529.04;;;7.21;60.44
33286;BME280;19656;50.096;20.014;2023-04-28T04:13:28;99528.05;;;7.15;60.78
33286;BME280;19656;50.096;20.014;2023-04-28T04:18:32;99527.31;;;7.11;61.15
33286;BME280;19656;50.096;20.014;2023-04-28T04:24:05;99528.77;;;7.06;61.29
33286;BME280;19656;50.096;20.014;2023-04-28T04:29:09;99525.48;;;7.00;61.58
33286;BME280;19656;50.096;20.014;2023-04-28T04:34:14;99525.72;;;6.98;61.93
33286;BME280;19656;50.096;20.014;2023-04-28T04:39:17;99526.96;;;7.02;62.05
33286;BME280;19656;50.096;20.014;2023-04-28T04:44:23;99521.48;;;7.02;61.92
33286;BME280;19656;50.096;20.014;2023-04-28T04:49:29;99522.34;;;7.08;62.19
33286;BME280;19656;50.096;20.014;2023-04-28T04:54:41;99513.29;;;7.18;62.04
33286;BME280;19656;50.096;20.014;2023-04-28T04:59:44;99517.35;;;7.27;61.96
33286;BME280;19656;50.096;20.014;2023-04-28T05:04:51;99513.77;;;7.37;62.02
33286;BME280;19656;50.096;20.014;2023-04-28T05:09:59;99514.83;;;7.49;60.93
33286;BME280;19656;50.096;20.014;2023-04-28T05:15:06;99515.80;;;7.64;60.81
33286;BME280;19656;50.096;20.014;2023-04-28T05:20:13;99512.79;;;7.80;60.50
33286;BME280;19656;50.096;20.014;2023-04-28T05:25:17;99513.87;;;7.96;59.03
33286;BME280;19656;50.096;20.014;2023-04-28T05:30:20;99512.92;;;8.22;57.51
33286;BME280;19656;50.096;20.014;2023-04-28T05:35:25;99515.19;;;8.43;55.50
33286;BME280;19656;50.096;20.014;2023-04-28T05:40:28;99508.27;;;8.62;54.62
33286;BME280;19656;50.096;20.014;2023-04-28T05:45:32;99505.05;;;8.78;53.50
33286;BME280;19656;50.096;20.014;2023-04-28T05:50:35;99507.91;;;8.92;52.61
33286;BME280;19656;50.096;20.014;2023-04-28T05:55:40;99511.31;;;9.18;52.63
33286;BME280;19656;50.096;20.014;2023-04-28T06:00:45;99512.39;;;9.35;51.81
33286;BME280;19656;50.096;20.014;2023-04-28T06:05:48;99509.60;;;9.49;50.73
33286;BME280;19656;50.096;20.014;2023-04-28T06:10:52;99512.97;;;9.52;49.76
33286;BME280;19656;50.096;20.014;2023-04-28T06:15:57;99519.41;;;9.61;49.61
33286;BME280;19656;50.096;20.014;2023-04-28T06:21:00;99518.80;;;9.80;48.48
33286;BME280;19656;50.096;20.014;2023-04-28T06:26:04;99514.70;;;9.91;47.69
33286;BME280;19656;50.096;20.014;2023-04-28T06:31:08;99512.55;;;9.98;47.90
33286;BME280;19656;50.096;20.014;2023-04-28T06:36:11;99512.84;;;10.10;47.80
33286;BME280;19656;50.096;20.014;2023-04-28T06:41:16;99509.45;;;10.31;46.85
33286;BME280;19656;50.096;20.014;2023-04-28T06:46:22;99511.90;;;10.45;46.53
33286;BME280;19656;50.096;20.014;2023-04-28T06:51:26;99510.57;;;10.60;46.67
33286;BME280;19656;50.096;20.014;2023-04-28T06:56:31;99513.06;;;10.79;46.08
33286;BME280;19656;50.096;20.014;2023-04-28T07:01:35;99502.45;;;10.97;45.92
33286;BME280;19656;50.096;20.014;2023-04-28T07:06:39;99490.66;;;11.17;45.08
33286;BME280;19656;50.096;20.014;2023-04-28T07:11:43;99484.83;;;11.32;44.79
33286;BME280;19656;50.096;20.014;2023-04-28T07:16:46;99486.59;;;11.48;45.68
33286;BME280;19656;50.096;20.014;2023-04-28T07:22:04;99482.31;;;11.69;45.09
33286;BME280;19656;50.096;20.014;2023-04-28T07:27:07;99476.59;;;11.87;44.43
33286;BME280;19656;50.096;20.014;2023-04-28T07:32:11;99474.03;;;12.03;43.58
33286;BME280;19656;50.096;20.014;2023-04-28T07:37:15;99464.90;;;12.16;43.54
33286;BME280;19656;50.096;20.014;2023-04-28T07:42:18;99459.43;;;12.27;42.94
33286;BME280;19656;50.096;20.014;2023-04-28T07:47:22;99452.13;;;12.44;42.17
33286;BME280;19656;50.096;20.014;2023-04-28T07:52:26;99450.21;;;12.57;40.13
33286;BME280;19656;50.096;20.014;2023-04-28T07:57:29;99444.65;;;12.69;38.80
33286;BME280;19656;50.096;20.014;2023-04-28T08:02:33;99438.30;;;12.85;38.67
33286;BME280;19656;50.096;20.014;2023-04-28T08:07:37;99434.45;;;12.98;38.22
33286;BME280;19656;50.096;20.014;2023-04-28T08:12:40;99437.49;;;13.10;38.21
33286;BME280;19656;50.096;20.014;2023-04-28T08:17:44;99433.84;;;13.42;40.29
33286;BME280;19656;50.096;20.014;2023-04-28T08:22:47;99428.15;;;14.06;40.97
33286;BME280;19656;50.096;20.014;2023-04-28T08:27:51;99426.71;;;14.06;36.91
33286;BME280;19656;50.096;20.014;2023-04-28T08:32:56;99420.56;;;14.01;36.72
33286;BME280;19656;50.096;20.014;2023-04-28T08:37:59;99420.27;;;13.94;35.86
33286;BME280;19656;50.096;20.014;2023-04-28T08:43:03;99418.58;;;13.90;34.50
33286;BME280;19656;50.096;20.014;2023-04-28T08:48:20;99416.11;;;13.87;33.82
33286;BME280;19656;50.096;20.014;2023-04-28T08:53:25;99414.48;;;13.93;33.20
33286;BME280;19656;50.096;20.014;2023-04-28T08:58:29;99411.49;;;14.02;33.43
33286;BME280;19656;50.096;20.014;2023-04-28T09:03:33;99409.23;;;14.11;33.67
33286;BME280;19656;50.096;20.014;2023-04-28T09:08:36;99409.24;;;14.27;34.03
33286;BME280;19656;50.096;20.014;2023-04-28T09:13:40;99396.41;;;14.44;33.20
33286;BME280;19656;50.096;20.014;2023-04-28T09:18:56;99394.58;;;14.59;33.08
33286;BME280;19656;50.096;20.014;2023-04-28T09:24:03;99386.86;;;14.70;32.22
33286;BME280;19656;50.096;20.014;2023-04-28T09:29:13;99388.83;;;14.77;31.97
33286;BME280;19656;50.096;20.014;2023-04-28T09:34:17;99381.81;;;14.90;32.25
33286;BME280;19656;50.096;20.014;2023-04-28T09:39:29;99367.60;;;15.08;33.24
33286;BME280;19656;50.096;20.014;2023-04-28T09:44:32;99366.90;;;15.17;32.54
33286;BME280;19656;50.096;20.014;2023-04-28T09:49:52;99362.06;;;15.33;31.44
33286;BME280;19656;50.096;20.014;2023-04-28T09:54:57;99355.49;;;15.52;31.10
33286;BME280;19656;50.096;20.014;2023-04-28T10:00:01;99347.98;;;15.73;31.83
33286;BME280;19656;50.096;20.014;2023-04-28T10:05:08;99338.02;;;15.92;32.62
33286;BME280;19656;50.096;20.014;2023-04-28T10:10:19;99328.96;;;16.12;32.29
33286;BME280;19656;50.096;20.014;2023-04-28T10:15:22;99323.39;;;16.34;31.18
33286;BME280;19656;50.096;20.014;2023-04-28T10:20:28;99318.73;;;16.60;31.14
33286;BME280;19656;50.096;20.014;2023-04-28T10:25:36;99312.95;;;16.89;34.14
33286;BME280;19656;50.096;20.014;2023-04-28T10:30:40;99314.22;;;17.32;32.48
33286;BME280;19656;50.096;20.014;2023-04-28T10:35:45;99308.21;;;17.35;29.70
33286;BME280;19656;50.096;20.014;2023-04-28T10:40:51;99299.88;;;17.35;29.11
33286;BME280;19656;50.096;20.014;2023-04-28T10:46:04;99292.92;;;17.52;28.51
33286;BME280;19656;50.096;20.014;2023-04-28T11:01:31;99264.08;;;18.19;29.09
33286;BME280;19656;50.096;20.014;2023-04-28T11:06:43;99262.58;;;17.97;27.54
33286;BME280;19656;50.096;20.014;2023-04-28T11:17:04;99244.80;;;18.21;29.22
33286;BME280;19656;50.096;20.014;2023-04-28T11:22:19;99241.17;;;18.55;28.79
33286;BME280;19656;50.096;20.014;2023-04-28T11:27:25;99229.49;;;18.88;27.29
33286;BME280;19656;50.096;20.014;2023-04-28T11:32:31;99226.94;;;19.04;28.55
33286;BME280;19656;50.096;20.014;2023-04-28T11:37:34;99230.02;;;19.25;33.11
33286;BME280;19656;50.096;20.014;2023-04-28T11:42:48;99222.61;;;19.36;31.17
33286;BME280;19656;50.096;20.014;2023-04-28T11:47:51;99214.76;;;19.58;31.32
33286;BME280;19656;50.096;20.014;2023-04-28T11:52:55;99205.02;;;19.84;29.17
33286;BME280;19656;50.096;20.014;2023-04-28T11:58:23;99203.11;;;20.09;27.64
33286;BME280;19656;50.096;20.014;2023-04-28T12:03:27;99191.33;;;20.16;26.14
33286;BME280;19656;50.096;20.014;2023-04-28T12:08:30;99178.70;;;20.35;26.33
33286;BME280;19656;50.096;20.014;2023-04-28T12:13:33;99176.98;;;20.63;26.47
33286;BME280;19656;50.096;20.014;2023-04-28T12:18:57;99171.69;;;20.85;24.97
33286;BME280;19656;50.096;20.014;2023-04-28T12:29:39;99153.86;;;20.99;25.27
33286;BME280;19656;50.096;20.014;2023-04-28T12:34:45;99144.77;;;21.15;24.11
33286;BME280;19656;50.096;20.014;2023-04-28T12:39:48;99140.30;;;21.22;23.66
33286;BME280;19656;50.096;20.014;2023-04-28T12:44:52;99131.90;;;21.13;23.53
33286;BME280;19656;50.096;20.014;2023-04-28T12:49:55;99119.68;;;21.07;23.88
33286;BME280;19656;50.096;20.014;2023-04-28T12:54:58;99119.05;;;21.20;23.46
33286;BME280;19656;50.096;20.014;2023-04-28T13:00:02;99107.10;;;21.27;24.03
33286;BME280;19656;50.096;20.014;2023-04-28T13:05:05;99103.20;;;21.59;24.32
33286;BME280;19656;50.096;20.014;2023-04-28T13:10:09;99100.11;;;21.74;23.32
33286;BME280;19656;50.096;20.014;2023-04-28T13:15:12;99096.27;;;21.83;23.21
33286;BME280;19656;50.096;20.014;2023-04-28T13:20:15;99092.64;;;21.95;23.99
33286;BME280;19656;50.096;20.014;2023-04-28T13:25:18;99086.86;;;22.20;23.77
33286;BME280;19656;50.096;20.014;2023-04-28T13:30:22;99080.02;;;22.36;24.62
33286;BME280;19656;50.096;20.014;2023-04-28T13:35:25;99070.54;;;22.30;26.42
33286;BME280;19656;50.096;20.014;2023-04-28T13:40:32;99063.48;;;22.40;26.46
33286;BME280;19656;50.096;20.014;2023-04-28T13:45:36;99056.04;;;22.40;25.68
33286;BME280;19656;50.096;20.014;2023-04-28T13:50:39;99053.45;;;22.44;24.64
33286;BME280;19656;50.096;20.014;2023-04-28T13:55:42;99047.04;;;22.36;24.44
33286;BME280;19656;50.096;20.014;2023-04-28T14:00:46;99045.09;;;22.30;24.38
33286;BME280;19656;50.096;20.014;2023-04-28T14:05:54;99044.61;;;22.28;24.38
33286;BME280;19656;50.096;20.014;2023-04-28T14:10:59;99031.77;;;22.34;23.88
33286;BME280;19656;50.096;20.014;2023-04-28T14:16:03;99017.77;;;22.18;23.23
33286;BME280;19656;50.096;20.014;2023-04-28T14:25:37;99007.55;;;22.28;25.90
33286;BME280;19656;50.096;20.014;2023-04-28T14:30:40;99003.16;;;22.20;26.18
33286;BME280;19656;50.096;20.014;2023-04-28T14:35:44;99000.72;;;21.92;26.02
33286;BME280;19656;50.096;20.014;2023-04-28T14:40:47;98995.31;;;21.68;26.70
33286;BME280;19656;50.096;20.014;2023-04-28T14:45:51;98994.91;;;21.48;27.14
33286;BME280;19656;50.096;20.014;2023-04-28T14:50:56;98996.64;;;21.29;26.83
33286;BME280;19656;50.096;20.014;2023-04-28T14:55:59;98998.64;;;20.98;26.61
33286;BME280;19656;50.096;20.014;2023-04-28T15:01:23;98999.81;;;20.73;27.36
33286;BME280;19656;50.096;20.014;2023-04-28T15:06:26;98994.20;;;20.53;27.41
33286;BME280;19656;50.096;20.014;2023-04-28T15:11:30;98988.61;;;20.37;27.80
33286;BME280;19656;50.096;20.014;2023-04-28T15:16:33;98989.81;;;20.20;27.92
33286;BME280;19656;50.096;20.014;2023-04-28T15:21:37;98987.40;;;20.10;28.95
33286;BME280;19656;50.096;20.014;2023-04-28T15:26:41;98983.18;;;20.06;30.01
33286;BME280;19656;50.096;20.014;2023-04-28T15:31:44;98983.65;;;20.08;29.78
33286;BME280;19656;50.096;20.014;2023-04-28T15:36:49;98984.13;;;20.05;29.71
33286;BME280;19656;50.096;20.014;2023-04-28T15:41:57;98982.98;;;20.02;29.62
33286;BME280;19656;50.096;20.014;2023-04-28T15:47:01;98979.83;;;20.10;29.46
33286;BME280;19656;50.096;20.014;2023-04-28T15:52:04;98977.98;;;20.34;28.62
33286;BME280;19656;50.096;20.014;2023-04-28T15:57:07;98977.87;;;20.43;28.54
33286;BME280;19656;50.096;20.014;2023-04-28T16:02:11;98973.34;;;20.43;28.31
33286;BME280;19656;50.096;20.014;2023-04-28T16:07:14;98968.70;;;20.27;27.71
33286;BME280;19656;50.096;20.014;2023-04-28T16:12:17;98962.52;;;20.02;27.87
33286;BME280;19656;50.096;20.014;2023-04-28T16:17:20;98966.02;;;19.80;28.10
33286;BME280;19656;50.096;20.014;2023-04-28T16:22:24;98964.00;;;19.55;28.05
33286;BME280;19656;50.096;20.014;2023-04-28T16:27:27;98951.20;;;19.39;28.92
33286;BME280;19656;50.096;20.014;2023-04-28T16:32:32;98950.51;;;19.33;29.51
33286;BME280;19656;50.096;20.014;2023-04-28T16:37:39;98944.39;;;19.30;29.26
33286;BME280;19656;50.096;20.014;2023-04-28T16:42:42;98945.77;;;19.20;29.38
33286;BME280;19656;50.096;20.014;2023-04-28T16:47:58;98942.38;;;19.03;29.32
33286;BME280;19656;50.096;20.014;2023-04-28T16:53:01;98947.23;;;18.85;30.03
33286;BME280;19656;50.096;20.014;2023-04-28T16:58:04;98936.26;;;18.78;30.37
33286;BME280;19656;50.096;20.014;2023-04-28T17:03:08;98938.32;;;18.50;29.31
33286;BME280;19656;50.096;20.014;2023-04-28T17:08:11;98929.96;;;18.14;29.22
33286;BME280;19656;50.096;20.014;2023-04-28T17:13:14;98935.08;;;17.86;29.90
33286;BME280;19656;50.096;20.014;2023-04-28T17:18:17;98939.51;;;17.63;29.89
33286;BME280;19656;50.096;20.014;2023-04-28T17:23:21;98940.34;;;17.41;30.02
33286;BME280;19656;50.096;20.014;2023-04-28T17:28:24;98944.55;;;17.28;31.02
33286;BME280;19656;50.096;20.014;2023-04-28T17:33:28;98943.25;;;17.15;32.10
33286;BME280;19656;50.096;20.014;2023-04-28T17:38:31;98942.95;;;17.20;32.33
33286;BME280;19656;50.096;20.014;2023-04-28T17:43:37;98931.77;;;17.05;31.96
33286;BME280;19656;50.096;20.014;2023-04-28T17:48:41;98920.16;;;16.89;32.25
33286;BME280;19656;50.096;20.014;2023-04-28T17:53:44;98917.97;;;16.71;31.88
33286;BME280;19656;50.096;20.014;2023-04-28T17:58:50;98913.42;;;16.60;31.80
33286;BME280;19656;50.096;20.014;2023-04-28T18:04:04;98920.80;;;16.49;31.84
33286;BME280;19656;50.096;20.014;2023-04-28T18:09:08;98927.41;;;16.31;31.59
33286;BME280;19656;50.096;20.014;2023-04-28T18:14:11;98925.70;;;16.14;32.21
33286;BME280;19656;50.096;20.014;2023-04-28T18:19:17;98918.42;;;15.96;32.14
33286;BME280;19656;50.096;20.014;2023-04-28T18:24:21;98922.90;;;15.86;32.34
33286;BME280;19656;50.096;20.014;2023-04-28T18:29:24;98931.63;;;15.74;32.80
33286;BME280;19656;50.096;20.014;2023-04-28T18:34:28;98934.15;;;15.63;33.24
33286;BME280;19656;50.096;20.014;2023-04-28T18:39:31;98943.59;;;15.57;33.15
33286;BME280;19656;50.096;20.014;2023-04-28T18:44:34;98943.89;;;15.49;33.26
33286;BME280;19656;50.096;20.014;2023-04-28T18:49:37;98945.67;;;15.43;33.37
33286;BME280;19656;50.096;20.014;2023-04-28T18:54:41;98945.39;;;15.37;33.75
33286;BME280;19656;50.096;20.014;2023-04-28T18:59:45;98948.89;;;15.32;33.89
33286;BME280;19656;50.096;20.014;2023-04-28T19:04:49;98948.41;;;15.23;33.85
33286;BME280;19656;50.096;20.014;2023-04-28T19:09:53;98947.45;;;15.15;34.19
33286;BME280;19656;50.096;20.014;2023-04-28T19:14:56;98946.77;;;15.08;34.24
33286;BME280;19656;50.096;20.014;2023-04-28T19:19:59;98944.29;;;15.03;34.31
33286;BME280;19656;50.096;20.014;2023-04-28T19:25:04;98946.20;;;15.02;34.29
33286;BME280;19656;50.096;20.014;2023-04-28T19:30:10;98936.70;;;15.02;35.82
33286;BME280;19656;50.096;20.014;2023-04-28T19:35:14;98934.13;;;15.07;34.84
33286;BME280;19656;50.096;20.014;2023-04-28T19:40:17;98928.42;;;14.98;34.99
33286;BME280;19656;50.096;20.014;2023-04-28T19:45:21;98923.78;;;14.85;35.65
33286;BME280;19656;50.096;20.014;2023-04-28T19:50:24;98925.29;;;14.71;35.78
33286;BME280;19656;50.096;20.014;2023-04-28T19:55:27;98923.13;;;14.58;36.01
33286;BME280;19656;50.096;20.014;2023-04-28T20:00:31;98920.61;;;14.47;36.41
33286;BME280;19656;50.096;20.014;2023-04-28T20:05:37;98923.12;;;14.35;36.64
33286;BME280;19656;50.096;20.014;2023-04-28T20:10:40;98913.63;;;14.22;37.16
33286;BME280;19656;50.096;20.014;2023-04-28T20:15:44;98908.41;;;14.12;37.27
33286;BME280;19656;50.096;20.014;2023-04-28T20:20:47;98909.93;;;14.02;37.38
33286;BME280;19656;50.096;20.014;2023-04-28T20:25:54;98910.30;;;13.89;37.39
33286;BME280;19656;50.096;20.014;2023-04-28T20:30:57;98908.54;;;13.78;37.69
33286;BME280;19656;50.096;20.014;2023-04-28T20:36:00;98910.14;;;13.66;38.02
33286;BME280;19656;50.096;20.014;2023-04-28T20:41:03;98910.67;;;13.52;38.31
33286;BME280;19656;50.096;20.014;2023-04-28T20:46:08;98906.94;;;13.45;38.73
33286;BME280;19656;50.096;20.014;2023-04-28T20:51:15;98904.52;;;13.44;38.80
33286;BME280;19656;50.096;20.014;2023-04-28T20:56:19;98900.27;;;13.41;39.26
33286;BME280;19656;50.096;20.014;2023-04-28T21:01:22;98895.68;;;13.34;39.73
33286;BME280;19656;50.096;20.014;2023-04-28T21:06:25;98893.27;;;13.23;40.31
33286;BME280;19656;50.096;20.014;2023-04-28T21:11:28;98892.14;;;13.14;40.31
33286;BME280;19656;50.096;20.014;2023-04-28T21:16:32;98893.56;;;13.07;40.75
33286;BME280;19656;50.096;20.014;2023-04-28T21:21:35;98897.83;;;12.98;40.98
33286;BME280;19656;50.096;20.014;2023-04-28T21:26:39;98898.27;;;12.87;41.42
33286;BME280;19656;50.096;20.014;2023-04-28T21:31:43;98897.60;;;12.74;41.67
33286;BME280;19656;50.096;20.014;2023-04-28T21:36:46;98898.42;;;12.63;42.05
33286;BME280;19656;50.096;20.014;2023-04-28T21:41:49;98899.48;;;12.56;42.88
33286;BME280;19656;50.096;20.014;2023-04-28T21:46:52;98901.58;;;12.59;42.72
33286;BME280;19656;50.096;20.014;2023-04-28T21:51:55;98900.83;;;12.59;42.69
33286;BME280;19656;50.096;20.014;2023-04-28T21:56:58;98898.75;;;12.44;42.71
33286;BME280;19656;50.096;20.014;2023-04-28T22:02:01;98901.08;;;12.36;43.11
33286;BME280;19656;50.096;20.014;2023-04-28T22:07:04;98895.76;;;12.36;43.52
33286;BME280;19656;50.096;20.014;2023-04-28T22:12:08;98892.27;;;12.37;43.50
33286;BME280;19656;50.096;20.014;2023-04-28T22:17:11;98891.39;;;12.27;43.93
33286;BME280;19656;50.096;20.014;2023-04-28T22:22:14;98889.59;;;12.20;44.34
33286;BME280;19656;50.096;20.014;2023-04-28T22:27:17;98882.80;;;12.13;44.67
33286;BME280;19656;50.096;20.014;2023-04-28T22:32:21;98881.05;;;12.07;45.33
33286;BME280;19656;50.096;20.014;2023-04-28T22:37:24;98885.41;;;12.03;45.31
33286;BME280;19656;50.096;20.014;2023-04-28T22:42:27;98880.77;;;11.98;45.53
33286;BME280;19656;50.096;20.014;2023-04-28T22:47:34;98881.16;;;11.93;45.65
33286;BME280;19656;50.096;20.014;2023-04-28T22:52:38;98878.00;;;11.90;45.94
33286;BME280;19656;50.096;20.014;2023-04-28T22:57:41;98880.73;;;11.90;46.01
33286;BME280;19656;50.096;20.014;2023-04-28T23:02:44;98881.15;;;11.86;46.78
33286;BME280;19656;50.096;20.014;2023-04-28T23:07:47;98883.34;;;11.85;46.59
33286;BME280;19656;50.096;20.014;2023-04-28T23:12:50;98884.13;;;11.84;46.74
33286;BME280;19656;50.096;20.014;2023-04-28T23:17:54;98878.48;;;11.80;47.08
33286;BME280;19656;50.096;20.014;2023-04-28T23:22:57;98873.06;;;11.77;47.22
33286;BME280;19656;50.096;20.014;2023-04-28T23:28:01;98869.08;;;11.75;47.60
33286;BME280;19656;50.096;20.014;2023-04-28T23:33:04;98862.08;;;11.73;47.70
33286;BME280;19656;50.096;20.014;2023-04-28T23:38:07;98864.02;;;11.71;47.51
33286;BME280;19656;50.096;20.014;2023-04-28T23:43:10;98858.34;;;11.66;47.49
33286;BME280;19656;50.096;20.014;2023-04-28T23:48:14;98857.68;;;11.57;47.67
33286;BME280;19656;50.096;20.014;2023-04-28T23:53:17;98848.92;;;11.48;47.98
33286;BME280;19656;50.096;20.014;2023-04-28T23:58:20;98844.80;;;11.41;48.09
